sensor_id;sensor_type;location;lat;lon;timestamp;pressure;altitude;pressure_sealevel;temperature;humidity
49943;BME280;36011;53.362;58.948;2023-02-20T00:02:14;95928.47;;;-16.31;54.30
49943;BME280;36011;53.362;58.948;2023-02-20T00:05:16;95935.13;;;-16.33;54.83
49943;BME280;36011;53.362;58.948;2023-02-20T00:08:18;95930.75;;;-16.42;54.82
49943;BME280;36011;53.362;58.948;2023-02-20T00:11:21;95921.53;;;-16.41;55.02
49943;BME280;36011;53.362;58.948;2023-02-20T00:14:22;95917.69;;;-16.25;54.49
49943;BME280;36011;53.362;58.948;2023-02-20T00:17:24;95915.28;;;-16.21;55.14
49943;BME280;36011;53.362;58.948;2023-02-20T00:20:28;95910.28;;;-16.19;55.51
49943;BME280;36011;53.362;58.948;2023-02-20T00:23:33;95909.25;;;-16.27;55.72
49943;BME280;36011;53.362;58.948;2023-02-20T00:26:37;95905.16;;;-16.22;56.16
49943;BME280;36011;53.362;58.948;2023-02-20T00:29:39;95916.97;;;-16.20;56.21
49943;BME280;36011;53.362;58.948;2023-02-20T00:32:43;95910.97;;;-16.26;56.10
49943;BME280;36011;53.362;58.948;2023-02-20T00:35:44;95917.91;;;-16.16;56.24
49943;BME280;36011;53.362;58.948;2023-02-20T00:38:48;95902.78;;;-16.16;56.20
49943;BME280;36011;53.362;58.948;2023-02-20T00:41:52;95899.78;;;-16.00;56.28
49943;BME280;36011;53.362;58.948;2023-02-20T00:44:58;95894.69;;;-16.03;56.34
49943;BME280;36011;53.362;58.948;2023-02-20T00:48:02;95888.19;;;-15.92;56.72
49943;BME280;36011;53.362;58.948;2023-02-20T00:51:03;95884.19;;;-15.83;57.05
49943;BME280;36011;53.362;58.948;2023-02-20T00:54:05;95881.59;;;-15.87;57.43
49943;BME280;36011;53.362;58.948;2023-02-20T00:57:06;95878.19;;;-15.89;57.64
49943;BME280;36011;53.362;58.948;2023-02-20T01:00:15;95878.06;;;-15.95;57.13
49943;BME280;36011;53.362;58.948;2023-02-20T01:03:17;95879.00;;;-15.90;58.00
49943;BME280;36011;53.362;58.948;2023-02-20T01:06:22;95873.25;;;-15.82;58.43
49943;BME280;36011;53.362;58.948;2023-02-20T01:09:23;95878.13;;;-15.92;58.49
49943;BME280;36011;53.362;58.948;2023-02-20T01:12:26;95881.34;;;-15.99;58.42
49943;BME280;36011;53.362;58.948;2023-02-20T01:15:27;95878.00;;;-15.98;58.60
49943;BME280;36011;53.362;58.948;2023-02-20T01:18:31;95871.38;;;-15.93;58.81
49943;BME280;36011;53.362;58.948;2023-02-20T01:21:32;95882.81;;;-15.66;59.20
49943;BME280;36011;53.362;58.948;2023-02-20T01:24:34;95872.63;;;-15.72;59.50
49943;BME280;36011;53.362;58.948;2023-02-20T01:27:40;95871.50;;;-15.87;59.59
49943;BME280;36011;53.362;58.948;2023-02-20T01:30:42;95866.78;;;-15.71;60.05
49943;BME280;36011;53.362;58.948;2023-02-20T01:33:44;95866.59;;;-15.80;59.96
49943;BME280;36011;53.362;58.948;2023-02-20T01:36:50;95874.97;;;-15.81;59.86
49943;BME280;36011;53.362;58.948;2023-02-20T01:39:54;95874.41;;;-15.65;60.19
49943;BME280;36011;53.362;58.948;2023-02-20T01:42:56;95865.75;;;-15.79;60.19
49943;BME280;36011;53.362;58.948;2023-02-20T01:46:34;95868.44;;;-15.73;60.49
49943;BME280;36011;53.362;58.948;2023-02-20T01:50:03;95860.88;;;-15.73;60.73
49943;BME280;36011;53.362;58.948;2023-02-20T01:53:15;95853.38;;;-15.70;60.73
49943;BME280;36011;53.362;58.948;2023-02-20T01:56:20;95850.16;;;-15.60;60.72
49943;BME280;36011;53.362;58.948;2023-02-20T01:59:22;95841.63;;;-15.68;61.12
49943;BME280;36011;53.362;58.948;2023-02-20T02:02:27;95843.63;;;-15.49;61.02
49943;BME280;36011;53.362;58.948;2023-02-20T02:05:36;95834.13;;;-15.64;61.45
49943;BME280;36011;53.362;58.948;2023-02-20T02:08:42;95835.94;;;-15.56;61.37
49943;BME280;36011;53.362;58.948;2023-02-20T02:11:46;95827.56;;;-15.55;61.85
49943;BME280;36011;53.362;58.948;2023-02-20T02:14:49;95832.66;;;-15.52;61.82
49943;BME280;36011;53.362;58.948;2023-02-20T02:41:39;95817.78;;;-15.39;61.97
49943;BME280;36011;53.362;58.948;2023-02-20T02:48:00;95811.63;;;-15.53;62.32
49943;BME280;36011;53.362;58.948;2023-02-20T02:51:15;95832.06;;;-15.38;62.18
49943;BME280;36011;53.362;58.948;2023-02-20T02:54:23;95828.84;;;-15.30;62.21
49943;BME280;36011;53.362;58.948;2023-02-20T02:57:27;95830.59;;;-15.26;62.14
49943;BME280;36011;53.362;58.948;2023-02-20T03:00:51;95828.16;;;-15.22;62.68
49943;BME280;36011;53.362;58.948;2023-02-20T03:04:00;95824.75;;;-15.24;62.25
49943;BME280;36011;53.362;58.948;2023-02-20T03:07:09;95788.09;;;-15.52;62.43
49943;BME280;36011;53.362;58.948;2023-02-20T03:10:15;95827.53;;;-15.10;62.70
49943;BME280;36011;53.362;58.948;2023-02-20T03:13:28;95817.44;;;-15.10;62.63
49943;BME280;36011;53.362;58.948;2023-02-20T03:20:15;95812.47;;;-15.04;62.66
49943;BME280;36011;53.362;58.948;2023-02-20T03:23:23;95812.47;;;-15.04;62.70
49943;BME280;36011;53.362;58.948;2023-02-20T03:26:32;95797.28;;;-15.07;62.81
49943;BME280;36011;53.362;58.948;2023-02-20T03:29:37;95814.47;;;-14.84;62.79
49943;BME280;36011;53.362;58.948;2023-02-20T03:32:43;95812.88;;;-14.79;63.26
49943;BME280;36011;53.362;58.948;2023-02-20T03:36:09;95812.25;;;-14.66;63.06
49943;BME280;36011;53.362;58.948;2023-02-20T03:39:38;95810.72;;;-14.56;63.16
49943;BME280;36011;53.362;58.948;2023-02-20T03:43:04;95813.31;;;-14.49;62.99
49943;BME280;36011;53.362;58.948;2023-02-20T03:46:26;95806.63;;;-14.43;63.34
49943;BME280;36011;53.362;58.948;2023-02-20T03:49:40;95803.41;;;-14.33;63.24
49943;BME280;36011;53.362;58.948;2023-02-20T03:53:01;95795.16;;;-14.23;62.94
49943;BME280;36011;53.362;58.948;2023-02-20T03:56:18;95798.53;;;-14.21;63.26
49943;BME280;36011;53.362;58.948;2023-02-20T03:59:24;95791.09;;;-14.10;63.25
49943;BME280;36011;53.362;58.948;2023-02-20T04:02:37;95788.81;;;-13.90;63.17
49943;BME280;36011;53.362;58.948;2023-02-20T04:05:42;95798.28;;;-13.74;63.04
49943;BME280;36011;53.362;58.948;2023-02-20T04:08:59;95785.72;;;-13.65;62.54
49943;BME280;36011;53.362;58.948;2023-02-20T04:12:10;95790.94;;;-13.51;62.95
49943;BME280;36011;53.362;58.948;2023-02-20T04:15:13;95797.00;;;-13.37;63.25
49943;BME280;36011;53.362;58.948;2023-02-20T04:18:17;95797.03;;;-13.30;62.30
49943;BME280;36011;53.362;58.948;2023-02-20T04:21:38;95797.16;;;-13.14;62.57
49943;BME280;36011;53.362;58.948;2023-02-20T04:24:57;95792.19;;;-13.06;62.79
49943;BME280;36011;53.362;58.948;2023-02-20T04:28:01;95791.44;;;-12.94;62.51
49943;BME280;36011;53.362;58.948;2023-02-20T04:31:03;95784.75;;;-12.89;62.44
49943;BME280;36011;53.362;58.948;2023-02-20T04:34:07;95784.81;;;-12.77;61.93
49943;BME280;36011;53.362;58.948;2023-02-20T04:37:12;95785.81;;;-12.58;62.87
49943;BME280;36011;53.362;58.948;2023-02-20T04:40:19;95774.91;;;-12.46;62.53
49943;BME280;36011;53.362;58.948;2023-02-20T04:43:23;95781.72;;;-12.42;62.01
49943;BME280;36011;53.362;58.948;2023-02-20T04:46:24;95786.03;;;-12.24;62.53
49943;BME280;36011;53.362;58.948;2023-02-20T04:49:29;95764.88;;;-12.31;62.28
49943;BME280;36011;53.362;58.948;2023-02-20T04:52:33;95779.34;;;-12.10;62.26
49943;BME280;36011;53.362;58.948;2023-02-20T04:55:35;95771.78;;;-12.05;62.42
49943;BME280;36011;53.362;58.948;2023-02-20T04:58:36;95779.41;;;-11.98;62.42
49943;BME280;36011;53.362;58.948;2023-02-20T05:01:37;95771.00;;;-11.78;61.93
49943;BME280;36011;53.362;58.948;2023-02-20T05:04:39;95769.38;;;-11.58;62.23
49943;BME280;36011;53.362;58.948;2023-02-20T05:07:40;95766.03;;;-11.50;62.41
49943;BME280;36011;53.362;58.948;2023-02-20T05:10:45;95752.47;;;-11.46;61.77
49943;BME280;36011;53.362;58.948;2023-02-20T05:13:48;95763.53;;;-11.27;61.68
49943;BME280;36011;53.362;58.948;2023-02-20T05:16:49;95771.22;;;-10.95;61.89
49943;BME280;36011;53.362;58.948;2023-02-20T05:19:53;95766.13;;;-10.83;60.94
49943;BME280;36011;53.362;58.948;2023-02-20T05:22:55;95758.50;;;-10.69;60.65
49943;BME280;36011;53.362;58.948;2023-02-20T05:25:56;95756.81;;;-10.61;60.39
49943;BME280;36011;53.362;58.948;2023-02-20T05:28:57;95762.72;;;-10.48;60.12
49943;BME280;36011;53.362;58.948;2023-02-20T05:31:58;95766.94;;;-10.41;60.18
49943;BME280;36011;53.362;58.948;2023-02-20T05:35:00;95780.50;;;-10.31;60.03
49943;BME280;36011;53.362;58.948;2023-02-20T05:38:01;95779.56;;;-10.17;59.96
49943;BME280;36011;53.362;58.948;2023-02-20T05:41:05;95766.81;;;-9.98;60.04
49943;BME280;36011;53.362;58.948;2023-02-20T05:44:07;95765.09;;;-9.91;60.43
49943;BME280;36011;53.362;58.948;2023-02-20T05:47:08;95769.28;;;-9.78;60.18
49943;BME280;36011;53.362;58.948;2023-02-20T05:50:10;95767.56;;;-9.75;60.09
49943;BME280;36011;53.362;58.948;2023-02-20T05:53:14;95770.09;;;-9.64;59.47
49943;BME280;36011;53.362;58.948;2023-02-20T05:56:18;95771.69;;;-9.41;59.54
49943;BME280;36011;53.362;58.948;2023-02-20T05:59:22;95759.69;;;-9.24;59.28
49943;BME280;36011;53.362;58.948;2023-02-20T06:02:24;95765.53;;;-9.05;58.93
49943;BME280;36011;53.362;58.948;2023-02-20T06:05:25;95758.56;;;-8.83;58.75
49943;BME280;36011;53.362;58.948;2023-02-20T06:08:28;95764.44;;;-8.69;58.28
49943;BME280;36011;53.362;58.948;2023-02-20T06:11:31;95769.44;;;-8.56;58.28
49943;BME280;36011;53.362;58.948;2023-02-20T06:14:33;95764.19;;;-8.41;57.95
49943;BME280;36011;53.362;58.948;2023-02-20T06:17:34;95771.59;;;-8.17;58.63
49943;BME280;36011;53.362;58.948;2023-02-20T06:20:38;95773.94;;;-7.98;57.65
49943;BME280;36011;53.362;58.948;2023-02-20T06:23:41;95783.84;;;-7.71;56.84
49943;BME280;36011;53.362;58.948;2023-02-20T06:26:44;95785.50;;;-7.65;58.37
49943;BME280;36011;53.362;58.948;2023-02-20T06:29:48;95785.47;;;-7.60;57.66
49943;BME280;36011;53.362;58.948;2023-02-20T06:32:52;95771.78;;;-7.56;57.44
49943;BME280;36011;53.362;58.948;2023-02-20T06:35:56;95750.41;;;-7.51;58.34
49943;BME280;36011;53.362;58.948;2023-02-20T06:39:00;95763.34;;;-7.64;59.46
49943;BME280;36011;53.362;58.948;2023-02-20T06:42:01;95761.75;;;-7.73;60.29
49943;BME280;36011;53.362;58.948;2023-02-20T06:45:07;95749.06;;;-7.78;60.52
49943;BME280;36011;53.362;58.948;2023-02-20T06:48:08;95756.56;;;-7.65;61.03
49943;BME280;36011;53.362;58.948;2023-02-20T06:51:14;95749.56;;;-7.51;60.28
49943;BME280;36011;53.362;58.948;2023-02-20T06:54:16;95746.09;;;-7.44;60.32
49943;BME280;36011;53.362;58.948;2023-02-20T06:57:19;95749.41;;;-7.36;60.47
49943;BME280;36011;53.362;58.948;2023-02-20T07:00:21;95760.28;;;-7.21;60.27
49943;BME280;36011;53.362;58.948;2023-02-20T07:03:22;95746.56;;;-7.16;60.51
49943;BME280;36011;53.362;58.948;2023-02-20T07:06:24;95766.09;;;-7.10;60.83
49943;BME280;36011;53.362;58.948;2023-02-20T07:09:26;95769.34;;;-7.02;60.38
49943;BME280;36011;53.362;58.948;2023-02-20T07:12:31;95762.53;;;-7.00;61.05
49943;BME280;36011;53.362;58.948;2023-02-20T07:15:36;95757.25;;;-6.91;60.33
49943;BME280;36011;53.362;58.948;2023-02-20T07:18:40;95756.44;;;-6.91;59.85
49943;BME280;36011;53.362;58.948;2023-02-20T07:21:41;95758.13;;;-6.90;59.98
49943;BME280;36011;53.362;58.948;2023-02-20T07:24:49;95753.84;;;-6.90;60.15
49943;BME280;36011;53.362;58.948;2023-02-20T07:27:50;95740.19;;;-6.89;60.86
49943;BME280;36011;53.362;58.948;2023-02-20T07:30:51;95748.59;;;-6.81;61.08
49943;BME280;36011;53.362;58.948;2023-02-20T07:33:56;95738.50;;;-6.90;61.13
49943;BME280;36011;53.362;58.948;2023-02-20T07:36:57;95738.50;;;-6.90;61.00
49943;BME280;36011;53.362;58.948;2023-02-20T07:40:01;95748.59;;;-6.81;60.52
49943;BME280;36011;53.362;58.948;2023-02-20T07:43:06;95749.28;;;-6.71;60.04
49943;BME280;36011;53.362;58.948;2023-02-20T07:46:07;95743.94;;;-6.56;60.28
49943;BME280;36011;53.362;58.948;2023-02-20T07:49:11;95746.00;;;-6.25;59.90
49943;BME280;36011;53.362;58.948;2023-02-20T07:52:12;95741.38;;;-6.06;59.05
49943;BME280;36011;53.362;58.948;2023-02-20T07:55:15;95742.06;;;-5.98;58.24
49943;BME280;36011;53.362;58.948;2023-02-20T07:58:19;95733.91;;;-5.75;58.79
49943;BME280;36011;53.362;58.948;2023-02-20T08:01:23;95726.78;;;-5.57;58.37
49943;BME280;36011;53.362;58.948;2023-02-20T08:04:25;95726.63;;;-5.51;58.53
49943;BME280;36011;53.362;58.948;2023-02-20T08:07:27;95729.00;;;-5.42;59.35
49943;BME280;36011;53.362;58.948;2023-02-20T08:10:28;95727.41;;;-5.48;59.10
49943;BME280;36011;53.362;58.948;2023-02-20T08:13:33;95731.66;;;-5.47;58.20
49943;BME280;36011;53.362;58.948;2023-02-20T08:16:37;95726.47;;;-5.44;58.48
49943;BME280;36011;53.362;58.948;2023-02-20T08:19:44;95730.59;;;-5.36;58.37
49943;BME280;36011;53.362;58.948;2023-02-20T08:22:51;95727.81;;;-5.26;57.30
49943;BME280;36011;53.362;58.948;2023-02-20T08:25:53;95726.78;;;-5.19;57.03
49943;BME280;36011;53.362;58.948;2023-02-20T08:28:55;95721.72;;;-5.20;57.58
49943;BME280;36011;53.362;58.948;2023-02-20T08:31:59;95713.50;;;-4.97;57.29
49943;BME280;36011;53.362;58.948;2023-02-20T08:35:01;95713.13;;;-4.80;56.43
49943;BME280;36011;53.362;58.948;2023-02-20T08:38:05;95706.88;;;-4.70;55.94
49943;BME280;36011;53.362;58.948;2023-02-20T08:41:14;95709.97;;;-4.56;55.01
49943;BME280;36011;53.362;58.948;2023-02-20T08:44:15;95685.16;;;-4.57;55.00
49943;BME280;36011;53.362;58.948;2023-02-20T08:47:20;95698.66;;;-4.48;54.38
49943;BME280;36011;53.362;58.948;2023-02-20T08:50:21;95695.16;;;-4.46;54.63
49943;BME280;36011;53.362;58.948;2023-02-20T08:53:23;95701.59;;;-4.64;55.50
49943;BME280;36011;53.362;58.948;2023-02-20T08:56:24;95696.75;;;-4.76;55.17
49943;BME280;36011;53.362;58.948;2023-02-20T08:59:25;95703.59;;;-4.75;55.11
49943;BME280;36011;53.362;58.948;2023-02-20T09:02:30;95700.53;;;-4.55;54.49
49943;BME280;36011;53.362;58.948;2023-02-20T09:05:34;95702.75;;;-4.41;53.04
49943;BME280;36011;53.362;58.948;2023-02-20T09:08:35;95695.94;;;-4.42;52.80
49943;BME280;36011;53.362;58.948;2023-02-20T09:11:37;95694.41;;;-4.49;53.26
49943;BME280;36011;53.362;58.948;2023-02-20T09:14:38;95697.22;;;-4.60;52.75
49943;BME280;36011;53.362;58.948;2023-02-20T09:17:40;95699.16;;;-4.70;53.21
49943;BME280;36011;53.362;58.948;2023-02-20T09:20:41;95702.09;;;-4.85;53.38
49943;BME280;36011;53.362;58.948;2023-02-20T09:23:45;95702.25;;;-4.91;52.84
49943;BME280;36011;53.362;58.948;2023-02-20T09:26:49;95700.75;;;-5.02;53.88
49943;BME280;36011;53.362;58.948;2023-02-20T09:29:51;95702.88;;;-5.19;54.13
49943;BME280;36011;53.362;58.948;2023-02-20T09:32:53;95700.47;;;-5.27;53.88
49943;BME280;36011;53.362;58.948;2023-02-20T09:35:57;95703.34;;;-5.40;54.78
49943;BME280;36011;53.362;58.948;2023-02-20T09:38:58;95703.47;;;-5.47;54.59
49943;BME280;36011;53.362;58.948;2023-02-20T09:42:28;95696.66;;;-5.48;53.18
49943;BME280;36011;53.362;58.948;2023-02-20T09:45:37;95686.59;;;-5.57;54.70
49943;BME280;36011;53.362;58.948;2023-02-20T09:49:14;95687.34;;;-5.52;52.85
49943;BME280;36011;53.362;58.948;2023-02-20T09:52:18;95686.19;;;-5.38;53.75
49943;BME280;36011;53.362;58.948;2023-02-20T09:55:20;95687.97;;;-5.40;53.80
49943;BME280;36011;53.362;58.948;2023-02-20T10:01:53;95693.09;;;-5.40;51.95
49943;BME280;36011;53.362;58.948;2023-02-20T10:05:01;95688.97;;;-5.49;52.46
49943;BME280;36011;53.362;58.948;2023-02-20T10:08:09;95688.06;;;-5.47;52.44
49943;BME280;36011;53.362;58.948;2023-02-20T10:11:31;95696.59;;;-5.45;51.28
49943;BME280;36011;53.362;58.948;2023-02-20T10:24:33;95695.06;;;-5.55;51.54
49943;BME280;36011;53.362;58.948;2023-02-20T10:31:31;95683.84;;;-5.49;51.82
49943;BME280;36011;53.362;58.948;2023-02-20T10:34:56;95672.53;;;-5.37;52.07
49943;BME280;36011;53.362;58.948;2023-02-20T10:38:05;95672.53;;;-5.37;51.72
49943;BME280;36011;53.362;58.948;2023-02-20T10:41:27;95678.28;;;-5.28;50.70
49943;BME280;36011;53.362;58.948;2023-02-20T10:44:35;95673.81;;;-5.20;51.56
49943;BME280;36011;53.362;58.948;2023-02-20T10:48:06;95669.38;;;-5.11;48.55
49943;BME280;36011;53.362;58.948;2023-02-20T10:54:27;95667.88;;;-5.22;50.41
49943;BME280;36011;53.362;58.948;2023-02-20T10:57:44;95668.78;;;-5.24;50.81
49943;BME280;36011;53.362;58.948;2023-02-20T11:00:53;95677.44;;;-5.28;50.64
49943;BME280;36011;53.362;58.948;2023-02-20T11:04:02;95670.59;;;-5.28;50.40
49943;BME280;36011;53.362;58.948;2023-02-20T11:07:09;95679.31;;;-5.36;51.44
49943;BME280;36011;53.362;58.948;2023-02-20T11:10:15;95671.91;;;-5.49;51.89
49943;BME280;36011;53.362;58.948;2023-02-20T11:13:20;95678.78;;;-5.51;51.89
49943;BME280;36011;53.362;58.948;2023-02-20T11:16:29;95691.59;;;-5.51;51.95
49943;BME280;36011;53.362;58.948;2023-02-20T11:19:39;95681.22;;;-5.45;51.80
49943;BME280;36011;53.362;58.948;2023-02-20T11:22:46;95696.50;;;-5.42;51.57
49943;BME280;36011;53.362;58.948;2023-02-20T11:25:49;95702.59;;;-5.46;52.24
49943;BME280;36011;53.362;58.948;2023-02-20T11:28:59;95705.34;;;-5.55;51.54
49943;BME280;36011;53.362;58.948;2023-02-20T11:32:21;95700.34;;;-5.61;51.46
49943;BME280;36011;53.362;58.948;2023-02-20T11:35:26;95696.28;;;-5.71;52.55
49943;BME280;36011;53.362;58.948;2023-02-20T11:38:34;95687.94;;;-5.81;51.61
49943;BME280;36011;53.362;58.948;2023-02-20T11:41:36;95692.41;;;-5.91;51.52
49943;BME280;36011;53.362;58.948;2023-02-20T11:44:40;95696.09;;;-6.04;52.45
49943;BME280;36011;53.362;58.948;2023-02-20T11:47:45;95693.72;;;-6.13;52.55
49943;BME280;36011;53.362;58.948;2023-02-20T11:51:09;95689.56;;;-6.20;52.12
49943;BME280;36011;53.362;58.948;2023-02-20T11:54:28;95703.31;;;-6.24;51.99
49943;BME280;36011;53.362;58.948;2023-02-20T11:57:32;95694.81;;;-6.26;52.34
49943;BME280;36011;53.362;58.948;2023-02-20T12:00:49;95693.13;;;-6.27;51.34
49943;BME280;36011;53.362;58.948;2023-02-20T12:03:57;95689.81;;;-6.33;52.74
49943;BME280;36011;53.362;58.948;2023-02-20T12:07:38;95686.53;;;-6.39;52.31
49943;BME280;36011;53.362;58.948;2023-02-20T12:10:45;95690.16;;;-6.54;53.19
49943;BME280;36011;53.362;58.948;2023-02-20T12:13:51;95692.94;;;-6.65;52.94
49943;BME280;36011;53.362;58.948;2023-02-20T12:17:04;95687.09;;;-6.74;53.56
49943;BME280;36011;53.362;58.948;2023-02-20T12:20:17;95681.38;;;-6.89;52.94
49943;BME280;36011;53.362;58.948;2023-02-20T12:23:42;95684.81;;;-6.90;53.06
49943;BME280;36011;53.362;58.948;2023-02-20T12:26:52;95687.47;;;-6.96;53.90
49943;BME280;36011;53.362;58.948;2023-02-20T12:51:03;95697.22;;;-7.86;55.96
49943;BME280;36011;53.362;58.948;2023-02-20T12:54:37;95691.47;;;-8.05;56.22
49943;BME280;36011;53.362;58.948;2023-02-20T13:01:17;95698.63;;;-8.36;56.79
49943;BME280;36011;53.362;58.948;2023-02-20T13:04:26;95706.41;;;-8.45;57.16
49943;BME280;36011;53.362;58.948;2023-02-20T13:07:36;95703.91;;;-8.53;57.68
49943;BME280;36011;53.362;58.948;2023-02-20T13:10:49;95717.59;;;-8.60;57.26
49943;BME280;36011;53.362;58.948;2023-02-20T13:17:24;95713.53;;;-8.81;58.02
49943;BME280;36011;53.362;58.948;2023-02-20T13:20:38;95723.84;;;-8.96;58.33
49943;BME280;36011;53.362;58.948;2023-02-20T13:23:41;95709.50;;;-9.08;58.59
49943;BME280;36011;53.362;58.948;2023-02-20T13:26:48;95713.78;;;-9.15;58.66
49943;BME280;36011;53.362;58.948;2023-02-20T13:30:16;95718.94;;;-9.22;58.67
49943;BME280;36011;53.362;58.948;2023-02-20T13:33:27;95718.13;;;-9.28;58.87
49943;BME280;36011;53.362;58.948;2023-02-20T13:42:33;95736.09;;;-9.51;59.04
49943;BME280;36011;53.362;58.948;2023-02-20T13:45:44;95740.34;;;-9.53;58.89
49943;BME280;36011;53.362;58.948;2023-02-20T13:48:48;95746.28;;;-9.60;59.24
49943;BME280;36011;53.362;58.948;2023-02-20T13:51:50;95737.84;;;-9.71;59.40
49943;BME280;36011;53.362;58.948;2023-02-20T13:54:55;95744.69;;;-9.73;59.37
49943;BME280;36011;53.362;58.948;2023-02-20T13:58:13;95734.50;;;-9.73;59.50
49943;BME280;36011;53.362;58.948;2023-02-20T14:01:15;95724.34;;;-9.82;59.55
49943;BME280;36011;53.362;58.948;2023-02-20T14:04:19;95726.88;;;-9.85;59.74
49943;BME280;36011;53.362;58.948;2023-02-20T14:07:37;95733.69;;;-9.84;59.98
49943;BME280;36011;53.362;58.948;2023-02-20T14:10:45;95730.31;;;-9.86;60.00
49943;BME280;36011;53.362;58.948;2023-02-20T14:14:01;95728.63;;;-9.87;60.13
49943;BME280;36011;53.362;58.948;2023-02-20T14:17:17;95726.91;;;-9.87;59.88
49943;BME280;36011;53.362;58.948;2023-02-20T14:20:31;95719.28;;;-9.88;60.05
49943;BME280;36011;53.362;58.948;2023-02-20T14:23:37;95720.97;;;-9.84;60.18
49943;BME280;36011;53.362;58.948;2023-02-20T14:26:38;95720.97;;;-9.87;60.15
49943;BME280;36011;53.362;58.948;2023-02-20T14:29:45;95725.22;;;-9.85;59.88
49943;BME280;36011;53.362;58.948;2023-02-20T14:32:49;95724.34;;;-9.88;60.16
49943;BME280;36011;53.362;58.948;2023-02-20T14:39:37;95723.56;;;-9.95;60.33
49943;BME280;36011;53.362;58.948;2023-02-20T14:42:44;95710.94;;;-10.21;60.13
49943;BME280;36011;53.362;58.948;2023-02-20T14:46:04;95731.25;;;-10.12;60.11
49943;BME280;36011;53.362;58.948;2023-02-20T14:49:12;95745.69;;;-10.19;60.16
49943;BME280;36011;53.362;58.948;2023-02-20T14:52:22;95747.44;;;-10.27;60.17
49943;BME280;36011;53.362;58.948;2023-02-20T14:55:25;95740.66;;;-10.34;60.03
49943;BME280;36011;53.362;58.948;2023-02-20T14:58:34;95743.19;;;-10.45;60.07
49943;BME280;36011;53.362;58.948;2023-02-20T15:01:39;95755.09;;;-10.47;60.56
49943;BME280;36011;53.362;58.948;2023-02-20T15:08:27;95754.25;;;-10.75;60.41
49943;BME280;36011;53.362;58.948;2023-02-20T15:11:31;95766.94;;;-10.90;60.89
49943;BME280;36011;53.362;58.948;2023-02-20T15:14:38;95750.88;;;-11.12;60.55
49943;BME280;36011;53.362;58.948;2023-02-20T15:17:42;95747.47;;;-11.22;60.88
49943;BME280;36011;53.362;58.948;2023-02-20T15:20:46;95748.28;;;-11.31;60.69
49943;BME280;36011;53.362;58.948;2023-02-20T15:23:50;95743.22;;;-11.40;61.16
49943;BME280;36011;53.362;58.948;2023-02-20T15:26:54;95747.41;;;-11.45;61.00
49943;BME280;36011;53.362;58.948;2023-02-20T15:30:10;95753.38;;;-11.37;60.54
49943;BME280;36011;53.362;58.948;2023-02-20T15:33:11;95756.72;;;-11.41;60.72
49943;BME280;36011;53.362;58.948;2023-02-20T15:36:17;95760.13;;;-11.36;61.10
49943;BME280;36011;53.362;58.948;2023-02-20T15:39:19;95750.81;;;-11.37;61.06
49943;BME280;36011;53.362;58.948;2023-02-20T15:42:23;95746.56;;;-11.41;61.03
49943;BME280;36011;53.362;58.948;2023-02-20T15:45:30;95755.88;;;-11.35;60.94
49943;BME280;36011;53.362;58.948;2023-02-20T15:48:34;95754.22;;;-11.32;61.04
49943;BME280;36011;53.362;58.948;2023-02-20T15:51:38;95752.53;;;-11.28;61.33
49943;BME280;36011;53.362;58.948;2023-02-20T15:54:40;95743.22;;;-11.27;61.17
49943;BME280;36011;53.362;58.948;2023-02-20T15:57:46;95740.69;;;-11.24;61.26
49943;BME280;36011;53.362;58.948;2023-02-20T16:00:53;95742.41;;;-11.20;61.07
49943;BME280;36011;53.362;58.948;2023-02-20T16:03:58;95748.31;;;-11.15;61.33
49943;BME280;36011;53.362;58.948;2023-02-20T16:07:00;95721.22;;;-11.22;61.38
49943;BME280;36011;53.362;58.948;2023-02-20T16:10:01;95737.31;;;-11.05;61.01
49943;BME280;36011;53.362;58.948;2023-02-20T16:13:03;95725.47;;;-11.06;61.50
49943;BME280;36011;53.362;58.948;2023-02-20T16:16:40;95750.88;;;-10.86;61.66
49943;BME280;36011;53.362;58.948;2023-02-20T16:19:45;95743.25;;;-10.81;61.86
49943;BME280;36011;53.362;58.948;2023-02-20T16:22:46;95743.22;;;-10.78;61.37
49943;BME280;36011;53.362;58.948;2023-02-20T16:25:50;95753.44;;;-10.75;61.60
49943;BME280;36011;53.362;58.948;2023-02-20T16:28:59;95759.34;;;-10.75;61.26
49943;BME280;36011;53.362;58.948;2023-02-20T16:35:03;95755.13;;;-10.77;61.30
49943;BME280;36011;53.362;58.948;2023-02-20T16:38:04;95758.50;;;-10.74;61.53
49943;BME280;36011;53.362;58.948;2023-02-20T16:41:09;95761.88;;;-10.72;61.63
49943;BME280;36011;53.362;58.948;2023-02-20T16:47:34;95755.09;;;-10.71;61.47
49943;BME280;36011;53.362;58.948;2023-02-20T16:50:38;95755.13;;;-10.67;61.16
49943;BME280;36011;53.362;58.948;2023-02-20T16:53:42;95763.56;;;-10.62;61.53
49943;BME280;36011;53.362;58.948;2023-02-20T16:56:45;95760.19;;;-10.65;61.54
49943;BME280;36011;53.362;58.948;2023-02-20T16:59:47;95765.25;;;-10.59;61.64
49943;BME280;36011;53.362;58.948;2023-02-20T17:02:48;95764.41;;;-10.56;61.57
49943;BME280;36011;53.362;58.948;2023-02-20T17:05:52;95780.50;;;-10.56;61.50
49943;BME280;36011;53.362;58.948;2023-02-20T17:08:59;95763.59;;;-10.69;61.32
49943;BME280;36011;53.362;58.948;2023-02-20T17:12:01;95768.66;;;-10.63;61.24
49943;BME280;36011;53.362;58.948;2023-02-20T17:15:06;95766.97;;;-10.61;61.41
49943;BME280;36011;53.362;58.948;2023-02-20T17:18:10;95755.09;;;-10.59;61.76
49943;BME280;36011;53.362;58.948;2023-02-20T17:21:14;95753.38;;;-10.51;62.13
49943;BME280;36011;53.362;58.948;2023-02-20T17:24:16;95742.41;;;-10.60;61.65
49943;BME280;36011;53.362;58.948;2023-02-20T17:27:18;95750.00;;;-10.47;61.94
49943;BME280;36011;53.362;58.948;2023-02-20T17:30:23;95755.91;;;-10.42;61.82
49943;BME280;36011;53.362;58.948;2023-02-20T17:33:27;95761.84;;;-10.43;61.51
49943;BME280;36011;53.362;58.948;2023-02-20T17:36:28;95769.50;;;-10.47;61.36
49943;BME280;36011;53.362;58.948;2023-02-20T17:39:32;95772.03;;;-10.49;61.59
49943;BME280;36011;53.362;58.948;2023-02-20T17:42:34;95777.13;;;-10.61;60.75
49943;BME280;36011;53.362;58.948;2023-02-20T17:45:38;95789.84;;;-10.69;60.52
49943;BME280;36011;53.362;58.948;2023-02-20T17:48:44;95793.22;;;-10.77;61.06